createdAt,value
2023-02-08T00:01:06.886Z,42.80
2023-02-08T00:03:34.575Z,43.30
2023-02-08T00:06:02.604Z,41.80
2023-02-08T00:08:30.784Z,43.70
2023-02-08T00:10:58.766Z,43.20
2023-02-08T00:13:26.557Z,44.30
2023-02-08T00:15:55.053Z,45.00
2023-02-08T00:18:22.869Z,48.90
2023-02-08T00:20:51.081Z,49.90
2023-02-08T00:23:19.000Z,46.90
2023-02-08T00:25:46.688Z,46.40
2023-02-08T00:28:15.962Z,44.10
2023-02-08T00:30:43.939Z,42.20
2023-02-08T00:33:12.391Z,40.70
2023-02-08T00:35:42.180Z,40.50
2023-02-08T00:38:09.973Z,43.20
2023-02-08T00:40:38.156Z,44.60
2023-02-08T00:43:06.945Z,39.70
2023-02-08T00:45:35.869Z,44.00
2023-02-08T00:48:03.629Z,49.60
2023-02-08T00:50:31.300Z,45.20
2023-02-08T00:52:59.871Z,35.70
2023-02-08T00:55:27.526Z,33.80
2023-02-08T00:57:55.254Z,33.00
2023-02-08T01:00:26.077Z,33.30
2023-02-08T01:02:53.766Z,33.50
2023-02-08T01:05:21.467Z,33.40
2023-02-08T01:07:49.116Z,33.50
2023-02-08T01:10:16.807Z,33.50
2023-02-08T01:12:44.582Z,34.50
2023-02-08T01:15:12.265Z,34.90
2023-02-08T01:17:40.041Z,34.60
2023-02-08T01:20:07.998Z,34.60
2023-02-08T01:22:37.345Z,36.80
2023-02-08T01:25:05.175Z,37.70
2023-02-08T01:27:32.908Z,36.30
2023-02-08T01:30:00.554Z,37.00
2023-02-08T01:32:29.296Z,37.70
2023-02-08T01:34:57.157Z,37.00
2023-02-08T01:37:24.884Z,37.20
2023-02-08T01:39:52.660Z,39.40
2023-02-08T01:42:22.243Z,43.10
2023-02-08T01:45:23.244Z,41.80
2023-02-08T01:48:15.252Z,41.70
2023-02-08T01:50:55.077Z,39.10
2023-02-08T01:53:23.624Z,40.40
2023-02-08T01:55:55.186Z,41.30
2023-02-08T01:58:23.612Z,40.80
2023-02-08T02:00:51.334Z,40.30
2023-02-08T02:03:20.925Z,40.10
2023-02-08T02:05:54.331Z,41.50
2023-02-08T02:08:22.082Z,42.70
2023-02-08T02:10:50.530Z,40.20
2023-02-08T02:13:24.200Z,39.30
2023-02-08T02:15:52.109Z,38.30
2023-02-08T02:18:31.060Z,41.70
2023-02-08T02:21:21.394Z,39.70
2023-02-08T02:23:55.210Z,38.80
2023-02-08T02:26:43.133Z,38.30
2023-02-08T02:29:38.862Z,36.40
2023-02-08T02:32:22.019Z,36.90
2023-02-08T02:34:59.513Z,37.50
2023-02-08T02:37:45.009Z,37.70
2023-02-08T02:40:21.472Z,36.00
2023-02-08T02:43:36.211Z,36.80
2023-02-08T02:46:23.133Z,34.80
2023-02-08T02:49:18.307Z,36.30
2023-02-08T02:51:59.071Z,36.60
2023-02-08T02:54:41.041Z,34.50
2023-02-08T02:57:11.407Z,34.60
2023-02-08T02:59:39.576Z,34.20
2023-02-08T03:02:07.313Z,33.10
2023-02-08T03:04:34.942Z,34.40
2023-02-08T03:07:16.336Z,34.30
2023-02-08T03:10:08.825Z,34.90
2023-02-08T03:13:15.441Z,33.10
2023-02-08T03:15:50.893Z,33.20
2023-02-08T03:18:21.626Z,32.20
2023-02-08T03:20:55.450Z,32.60
2023-02-08T03:23:28.678Z,33.40
2023-02-08T03:26:03.506Z,30.80
2023-02-08T03:28:40.971Z,32.10
2023-02-08T03:31:15.705Z,31.60
2023-02-08T03:33:53.058Z,31.40
2023-02-08T03:36:26.200Z,31.90
2023-02-08T03:38:54.484Z,32.30
2023-02-08T03:41:30.264Z,33.20
2023-02-08T03:44:10.357Z,36.10
2023-02-08T03:46:41.752Z,34.90
2023-02-08T03:49:17.289Z,37.20
2023-02-08T03:51:45.866Z,32.20
2023-02-08T03:54:20.256Z,34.40
2023-02-08T03:56:53.976Z,33.60
2023-02-08T03:59:27.971Z,33.30
2023-02-08T04:02:00.840Z,31.50
2023-02-08T04:04:36.512Z,33.50
2023-02-08T04:07:04.776Z,32.50
2023-02-08T04:09:32.445Z,37.00
2023-02-08T04:12:00.184Z,36.60
2023-02-08T04:14:27.883Z,35.80
2023-02-08T04:16:55.619Z,35.50
2023-02-08T04:19:23.234Z,32.70
2023-02-08T04:21:50.913Z,31.30
2023-02-08T04:24:18.668Z,31.60
2023-02-08T04:26:46.928Z,31.00
2023-02-08T04:29:14.564Z,30.40
2023-02-08T04:31:42.260Z,28.90
2023-02-08T04:34:09.940Z,28.30
2023-02-08T04:36:37.653Z,28.80
2023-02-08T04:39:05.339Z,29.30
2023-02-08T04:41:32.986Z,28.70
2023-02-08T04:44:00.630Z,27.80
2023-02-08T04:46:28.329Z,27.60
2023-02-08T04:48:57.965Z,27.90
2023-02-08T04:51:26.487Z,28.50
2023-02-08T04:53:54.139Z,29.00
2023-02-08T04:56:21.816Z,29.50
2023-02-08T04:58:49.712Z,31.40
2023-02-08T05:01:17.720Z,30.70
2023-02-08T05:03:45.493Z,32.40
2023-02-08T05:06:13.246Z,30.20
2023-02-08T05:08:41.001Z,30.50
2023-02-08T05:11:08.769Z,31.10
2023-02-08T05:13:36.385Z,29.60
2023-02-08T05:16:04.343Z,28.50
2023-02-08T05:18:32.097Z,29.70
2023-02-08T05:21:00.926Z,29.50
2023-02-08T05:23:28.662Z,28.70
2023-02-08T05:25:56.334Z,28.90
2023-02-08T05:28:24.127Z,29.00
2023-02-08T05:30:51.803Z,30.30
2023-02-08T05:33:19.573Z,49.20
2023-02-08T05:35:47.237Z,63.00
2023-02-08T05:38:14.901Z,39.40
2023-02-08T05:40:42.782Z,39.20
2023-02-08T05:43:10.573Z,37.10
2023-02-08T05:45:38.235Z,36.40
2023-02-08T05:48:05.994Z,32.40
2023-02-08T05:50:34.266Z,32.00
2023-02-08T05:53:02.036Z,29.60
2023-02-08T05:55:29.991Z,29.80
2023-02-08T05:57:57.655Z,28.50
2023-02-08T06:00:25.353Z,29.00
2023-02-08T06:02:53.079Z,29.00
2023-02-08T06:05:20.820Z,29.10
2023-02-08T06:07:48.414Z,28.20
2023-02-08T06:10:17.000Z,27.70
2023-02-08T06:12:44.701Z,28.10
2023-02-08T06:15:12.597Z,26.40
2023-02-08T06:17:40.280Z,26.40
2023-02-08T06:20:08.588Z,26.30
2023-02-08T06:22:36.826Z,28.10
2023-02-08T06:25:04.664Z,28.40
2023-02-08T06:27:32.358Z,28.30
2023-02-08T06:30:00.077Z,27.50
2023-02-08T06:32:27.975Z,27.70
2023-02-08T06:34:55.812Z,29.40
2023-02-08T06:37:23.444Z,28.00
2023-02-08T06:39:51.336Z,27.10
2023-02-08T06:42:19.002Z,27.70
2023-02-08T06:44:54.686Z,27.90
2023-02-08T06:47:24.265Z,27.50
2023-02-08T06:49:52.337Z,27.90
2023-02-08T06:52:21.382Z,26.80
2023-02-08T06:54:49.193Z,26.70
2023-02-08T06:57:16.910Z,28.10
2023-02-08T06:59:45.752Z,27.10
2023-02-08T07:02:16.313Z,26.20
2023-02-08T07:04:45.328Z,27.00
2023-02-08T07:07:13.842Z,25.20
2023-02-08T07:09:42.038Z,23.80
2023-02-08T07:12:10.382Z,25.70
2023-02-08T07:14:42.960Z,26.00
2023-02-08T07:17:12.959Z,25.80
2023-02-08T07:19:40.934Z,26.00
2023-02-08T07:22:08.611Z,26.60
2023-02-08T07:24:40.818Z,27.20
2023-02-08T07:27:10.650Z,26.40
2023-02-08T07:29:38.647Z,28.50
2023-02-08T07:32:08.247Z,27.10
2023-02-08T07:34:37.583Z,28.00
2023-02-08T07:37:05.335Z,29.40
2023-02-08T07:39:33.312Z,29.80
2023-02-08T07:42:01.011Z,29.70
2023-02-08T07:44:29.723Z,32.50
2023-02-08T07:46:57.432Z,29.30
2023-02-08T07:49:25.154Z,53.60
2023-02-08T07:51:52.964Z,33.30
2023-02-08T07:54:20.772Z,33.00
2023-02-08T07:56:50.991Z,30.40
2023-02-08T07:59:18.704Z,29.60
2023-02-08T08:01:46.445Z,28.50
2023-02-08T08:04:14.210Z,30.50
2023-02-08T08:06:41.912Z,39.50
2023-02-08T08:09:09.612Z,33.10
2023-02-08T08:11:37.287Z,39.10
2023-02-08T08:14:04.917Z,42.20
2023-02-08T08:16:32.698Z,31.90
2023-02-08T08:19:00.348Z,35.50
2023-02-08T08:21:28.072Z,29.30
2023-02-08T08:23:55.900Z,25.40
2023-02-08T08:26:23.609Z,27.20
2023-02-08T08:28:51.379Z,27.10
2023-02-08T08:31:21.386Z,28.20
2023-02-08T08:33:50.149Z,26.30
2023-02-08T08:36:17.832Z,24.80
2023-02-08T08:38:45.540Z,24.90
2023-02-08T08:41:17.776Z,23.40
2023-02-08T08:43:45.839Z,25.10
2023-02-08T08:46:13.679Z,26.10
2023-02-08T08:48:41.452Z,23.00
2023-02-08T08:51:09.396Z,23.60
2023-02-08T08:53:37.551Z,23.20
2023-02-08T08:56:06.520Z,21.30
2023-02-08T08:58:34.457Z,20.30
2023-02-08T09:01:02.432Z,22.10
2023-02-08T09:03:30.401Z,19.80
2023-02-08T09:05:58.159Z,20.00
2023-02-08T09:08:25.829Z,19.30
2023-02-08T09:10:53.465Z,20.40
2023-02-08T09:13:21.827Z,20.30
2023-02-08T09:15:49.980Z,21.10
2023-02-08T09:18:17.630Z,20.20
2023-02-08T09:20:45.680Z,20.70
2023-02-08T09:23:14.549Z,22.40
2023-02-08T09:25:42.313Z,22.10
2023-02-08T09:28:10.066Z,23.60
2023-02-08T09:30:37.781Z,25.90
2023-02-08T09:33:05.423Z,28.80
2023-02-08T09:35:33.123Z,30.10
2023-02-08T09:38:04.412Z,29.40
2023-02-08T09:40:42.013Z,28.40
2023-02-08T09:43:14.342Z,29.80
2023-02-08T09:45:59.177Z,31.10
2023-02-08T09:48:34.302Z,31.70
2023-02-08T09:51:16.024Z,30.60
2023-02-08T09:53:47.481Z,30.50
2023-02-08T09:56:17.728Z,30.50
2023-02-08T09:58:52.658Z,30.60
2023-02-08T10:01:32.875Z,33.00
2023-02-08T10:04:49.922Z,31.10
2023-02-08T10:07:17.554Z,33.70
2023-02-08T10:09:45.353Z,33.10
2023-02-08T10:12:41.120Z,32.70
2023-02-08T10:15:34.109Z,33.50
2023-02-08T10:18:07.753Z,34.20
2023-02-08T10:21:02.028Z,31.90
2023-02-08T10:23:48.477Z,30.80
2023-02-08T10:26:44.133Z,30.00
2023-02-08T10:29:21.235Z,27.00
2023-02-08T10:32:07.665Z,26.50
2023-02-08T10:34:48.020Z,25.70
2023-02-08T10:37:21.954Z,24.40
2023-02-08T10:39:52.857Z,20.30
2023-02-08T10:42:27.788Z,20.60
2023-02-08T10:45:24.315Z,17.90
2023-02-08T10:48:06.372Z,21.30
2023-02-08T10:50:38.713Z,18.50
2023-02-08T10:53:15.787Z,20.00
2023-02-08T10:55:47.474Z,18.00
2023-02-08T10:58:23.226Z,18.30
2023-02-08T11:00:54.315Z,20.50
2023-02-08T11:03:25.039Z,14.40
2023-02-08T11:05:57.478Z,10.50
2023-02-08T11:08:27.731Z,10.00
2023-02-08T11:11:07.394Z,11.80
2023-02-08T11:13:41.482Z,9.20
2023-02-08T11:16:12.963Z,8.00
2023-02-08T11:18:47.694Z,8.20
2023-02-08T11:21:37.311Z,6.00
2023-02-08T11:24:15.349Z,6.10
2023-02-08T11:26:50.360Z,7.00
2023-02-08T11:29:26.474Z,7.50
2023-02-08T11:32:01.925Z,7.60
2023-02-08T11:34:35.893Z,6.70
2023-02-08T11:37:16.133Z,7.40
2023-02-08T11:39:58.195Z,6.30
2023-02-08T11:42:35.473Z,10.40
2023-02-08T11:45:04.887Z,11.00
2023-02-08T11:47:35.676Z,11.60
2023-02-08T11:50:06.460Z,10.00
2023-02-08T11:52:39.338Z,11.90
2023-02-08T11:55:19.251Z,11.00
2023-02-08T11:57:55.980Z,11.50
2023-02-08T12:00:27.089Z,10.20
2023-02-08T12:03:00.438Z,9.30
2023-02-08T12:05:35.066Z,10.90
2023-02-08T12:08:02.670Z,11.70
2023-02-08T12:10:30.420Z,10.20
2023-02-08T12:13:05.251Z,9.30
2023-02-08T12:16:15.183Z,8.90
2023-02-08T12:18:49.355Z,8.90
2023-02-08T12:21:21.826Z,9.80
2023-02-08T12:23:55.865Z,10.00
2023-02-08T12:27:08.005Z,9.70
2023-02-08T12:29:48.041Z,9.90
2023-02-08T12:32:57.634Z,10.30
2023-02-08T12:36:03.941Z,9.60
2023-02-08T12:39:07.756Z,9.60
2023-02-08T12:42:02.646Z,8.90
2023-02-08T12:44:51.962Z,10.00
2023-02-08T12:47:34.649Z,10.20
2023-02-08T12:50:19.887Z,11.10
2023-02-08T12:52:55.209Z,13.20
2023-02-08T12:55:36.475Z,14.00
2023-02-08T12:58:29.554Z,11.80
2023-02-08T13:01:28.504Z,13.90
2023-02-08T13:04:09.459Z,13.80
2023-02-08T13:06:43.737Z,14.60
2023-02-08T13:09:20.510Z,13.70
2023-02-08T13:12:08.060Z,15.10
2023-02-08T13:14:55.728Z,15.10
2023-02-08T13:17:30.293Z,16.00
2023-02-08T13:20:02.601Z,16.40
2023-02-08T13:22:39.749Z,16.60
2023-02-08T13:25:26.273Z,16.00
2023-02-08T13:27:53.929Z,17.40
2023-02-08T13:30:22.317Z,16.10
2023-02-08T13:32:51.099Z,15.60
2023-02-08T13:35:29.747Z,16.40
2023-02-08T13:38:06.556Z,14.80
2023-02-08T13:40:36.992Z,15.60
2023-02-08T13:43:34.947Z,16.10
2023-02-08T13:46:04.329Z,14.50
2023-02-08T13:48:44.442Z,13.30
2023-02-08T13:51:30.658Z,12.10
2023-02-08T13:53:58.523Z,13.20
2023-02-08T13:56:45.318Z,12.70
2023-02-08T13:59:28.085Z,12.60
2023-02-08T14:02:26.891Z,11.80
2023-02-08T14:05:33.740Z,13.30
2023-02-08T14:08:03.222Z,12.60
2023-02-08T14:10:40.944Z,12.70
2023-02-08T14:13:56.529Z,12.60
2023-02-08T14:16:28.858Z,12.50
2023-02-08T14:18:59.451Z,12.20
2023-02-08T14:21:43.874Z,12.60
2023-02-08T14:24:28.029Z,11.60
2023-02-08T14:27:38.430Z,11.20
2023-02-08T14:30:07.738Z,11.30
2023-02-08T14:32:39.673Z,11.40
2023-02-08T14:35:09.347Z,12.20
2023-02-08T14:37:37.462Z,12.20
2023-02-08T14:40:23.634Z,12.10
2023-02-08T14:43:20.738Z,12.20
2023-02-08T14:45:51.551Z,11.10
2023-02-08T14:48:37.625Z,12.70
2023-02-08T14:51:08.949Z,13.20
2023-02-08T14:53:57.497Z,12.80
2023-02-08T14:56:31.658Z,13.70
2023-02-08T14:59:15.328Z,12.30
2023-02-08T15:02:02.111Z,12.50
2023-02-08T15:04:30.956Z,13.00
2023-02-08T15:07:31.290Z,13.60
2023-02-08T15:10:05.891Z,12.80
2023-02-08T15:12:39.073Z,13.50
2023-02-08T15:15:07.557Z,13.90
2023-02-08T15:17:45.581Z,13.20
2023-02-08T15:20:25.559Z,12.70
2023-02-08T15:23:05.165Z,13.20
2023-02-08T15:25:37.429Z,14.90
2023-02-08T15:28:19.588Z,15.70
2023-02-08T15:30:58.651Z,15.90
2023-02-08T15:33:27.073Z,14.70
2023-02-08T15:36:06.291Z,15.30
2023-02-08T15:38:38.459Z,13.60
2023-02-08T15:41:08.102Z,14.20
2023-02-08T15:43:37.354Z,13.40
2023-02-08T15:46:07.944Z,17.00
2023-02-08T15:48:36.285Z,15.30
2023-02-08T15:51:07.375Z,14.50
2023-02-08T15:53:44.601Z,15.00
2023-02-08T15:56:26.865Z,15.30
2023-02-08T15:59:03.650Z,14.90
2023-02-08T16:01:32.036Z,14.60
2023-02-08T16:04:05.989Z,14.80
2023-02-08T16:06:40.250Z,16.90
2023-02-08T16:09:17.989Z,17.90
2023-02-08T16:11:49.919Z,17.40
2023-02-08T16:14:19.628Z,16.40
2023-02-08T16:16:53.127Z,16.00
2023-02-08T16:19:27.992Z,15.20
2023-02-08T16:22:16.867Z,15.70
2023-02-08T16:24:46.969Z,16.10
2023-02-08T16:27:27.812Z,14.80
2023-02-08T16:29:56.279Z,17.10
2023-02-08T16:32:31.121Z,19.40
2023-02-08T16:35:00.058Z,20.20
2023-02-08T16:37:33.111Z,20.60
2023-02-08T16:40:10.162Z,25.20
2023-02-08T16:42:42.703Z,23.90
2023-02-08T16:45:12.642Z,22.80
2023-02-08T16:47:52.535Z,24.40
2023-02-08T16:50:25.513Z,24.00
2023-02-08T16:53:01.580Z,23.00
2023-02-08T16:55:33.650Z,24.50
2023-02-08T16:58:01.422Z,23.20
2023-02-08T17:00:32.333Z,25.70
2023-02-08T17:03:00.628Z,30.40
2023-02-08T17:05:36.184Z,34.30
2023-02-08T17:08:09.914Z,34.40
2023-02-08T17:10:38.422Z,36.30
2023-02-08T17:13:19.813Z,32.70
2023-02-08T17:15:50.289Z,30.20
2023-02-08T17:18:18.902Z,32.10
2023-02-08T17:20:46.860Z,32.40
2023-02-08T17:23:15.817Z,31.90
2023-02-08T17:25:44.409Z,32.50
2023-02-08T17:28:17.092Z,31.60
2023-02-08T17:30:45.721Z,31.00
2023-02-08T17:33:19.759Z,34.00
2023-02-08T17:35:49.653Z,32.40
2023-02-08T17:38:19.192Z,32.00
2023-02-08T17:40:47.292Z,34.80
2023-02-08T17:43:15.391Z,44.50
2023-02-08T17:45:44.027Z,48.40
2023-02-08T17:48:15.564Z,42.80
2023-02-08T17:50:47.714Z,45.60
2023-02-08T17:53:15.912Z,43.20
2023-02-08T17:55:45.149Z,42.70
2023-02-08T17:58:13.469Z,43.10
2023-02-08T18:00:41.330Z,39.00
2023-02-08T18:03:09.311Z,124.00
2023-02-08T18:05:37.601Z,121.40
2023-02-08T18:08:05.514Z,65.40
2023-02-08T18:10:33.208Z,39.70
2023-02-08T18:13:00.874Z,48.70
2023-02-08T18:15:28.873Z,101.00
2023-02-08T18:17:56.581Z,104.10
2023-02-08T18:20:24.213Z,86.50
2023-02-08T18:22:51.940Z,60.50
2023-02-08T18:25:20.567Z,58.60
2023-02-08T18:27:48.645Z,56.10
2023-02-08T18:30:16.528Z,50.00
2023-02-08T18:32:44.528Z,49.20
2023-02-08T18:35:12.177Z,59.20
2023-02-08T18:37:39.832Z,41.10
2023-02-08T18:40:09.191Z,42.30
2023-02-08T18:42:37.011Z,43.00
2023-02-08T18:45:05.547Z,41.10
2023-02-08T18:47:35.373Z,44.00
2023-02-08T18:50:03.430Z,41.80
2023-02-08T18:52:31.702Z,41.60
2023-02-08T18:54:59.681Z,41.70
2023-02-08T18:57:27.406Z,42.40
2023-02-08T18:59:55.935Z,45.30
2023-02-08T19:02:26.281Z,45.90
2023-02-08T19:04:54.323Z,45.30
2023-02-08T19:07:22.081Z,45.10
2023-02-08T19:09:49.917Z,45.70
2023-02-08T19:12:19.053Z,46.60
2023-02-08T19:14:50.585Z,46.20
2023-02-08T19:17:19.109Z,45.20
2023-02-08T19:19:47.464Z,46.30
2023-02-08T19:22:15.190Z,42.80
2023-02-08T19:24:43.073Z,44.90
2023-02-08T19:27:10.846Z,44.30
2023-02-08T19:29:38.568Z,42.20
2023-02-08T19:32:08.104Z,42.50
2023-02-08T19:34:35.858Z,46.00
2023-02-08T19:37:03.586Z,60.30
2023-02-08T19:39:31.446Z,67.20
2023-02-08T19:41:59.298Z,59.10
2023-02-08T19:44:30.297Z,58.00
2023-02-08T19:46:58.988Z,75.00
2023-02-08T19:49:28.403Z,83.40
2023-02-08T19:51:56.864Z,83.10
2023-02-08T19:54:25.202Z,74.70
2023-02-08T19:56:54.758Z,73.00
2023-02-08T19:59:27.809Z,74.40
2023-02-08T20:01:55.727Z,76.60
2023-02-08T20:04:24.209Z,98.30
2023-02-08T20:06:53.176Z,109.80
2023-02-08T20:09:21.070Z,98.90
2023-02-08T20:11:59.717Z,75.00
2023-02-08T20:14:31.012Z,74.50
2023-02-08T20:16:59.850Z,71.30
2023-02-08T20:19:28.395Z,68.30
2023-02-08T20:21:56.164Z,67.60
2023-02-08T20:24:23.821Z,71.30
2023-02-08T20:26:51.545Z,70.30
2023-02-08T20:29:19.435Z,67.20
2023-02-08T20:31:49.363Z,62.60
2023-02-08T20:34:18.756Z,64.40
2023-02-08T20:37:05.298Z,61.30
2023-02-08T20:39:34.720Z,63.20
2023-02-08T20:42:02.618Z,61.20
2023-02-08T20:44:31.497Z,64.00
2023-02-08T20:46:59.615Z,61.90
2023-02-08T20:49:27.650Z,64.00
2023-02-08T20:51:55.371Z,64.90
2023-02-08T20:54:26.505Z,64.80
2023-02-08T20:56:54.326Z,64.90
2023-02-08T20:59:22.343Z,68.40
2023-02-08T21:01:50.443Z,64.80
2023-02-08T21:04:20.293Z,63.30
2023-02-08T21:06:48.079Z,64.00
2023-02-08T21:09:17.472Z,62.50
2023-02-08T21:11:46.019Z,67.30
2023-02-08T21:14:18.668Z,66.90
2023-02-08T21:16:51.797Z,69.70
2023-02-08T21:19:20.814Z,69.90
2023-02-08T21:21:54.520Z,72.30
2023-02-08T21:24:23.961Z,69.60
2023-02-08T21:26:53.253Z,73.70
2023-02-08T21:29:21.864Z,75.10
2023-02-08T21:31:52.465Z,74.00
2023-02-08T21:34:20.864Z,71.60
2023-02-08T21:36:48.782Z,70.00
2023-02-08T21:39:16.400Z,67.60
2023-02-08T21:41:44.397Z,67.10
2023-02-08T21:44:12.181Z,64.20
2023-02-08T21:46:39.926Z,62.60
2023-02-08T21:49:26.333Z,58.60
2023-02-08T21:52:12.844Z,58.20
2023-02-08T21:54:46.616Z,54.80
2023-02-08T21:57:28.535Z,55.30
2023-02-08T21:59:58.241Z,52.70
2023-02-08T22:02:28.765Z,53.70
2023-02-08T22:05:17.200Z,52.30
2023-02-08T22:07:48.485Z,48.80
2023-02-08T22:10:19.019Z,49.50
2023-02-08T22:12:47.379Z,48.10
2023-02-08T22:15:17.533Z,47.10
2023-02-08T22:17:45.644Z,44.90
2023-02-08T22:20:15.108Z,44.60
2023-02-08T22:22:42.848Z,43.50
2023-02-08T22:25:10.661Z,45.40
2023-02-08T22:27:39.234Z,43.20
2023-02-08T22:30:08.742Z,42.00
2023-02-08T22:32:39.840Z,41.90
2023-02-08T22:35:08.116Z,41.40
2023-02-08T22:37:36.053Z,38.10
2023-02-08T22:40:05.374Z,38.50
2023-02-08T22:42:33.128Z,37.70
2023-02-08T22:45:00.828Z,35.90
2023-02-08T22:47:28.579Z,36.70
2023-02-08T22:49:58.423Z,35.50
2023-02-08T22:52:26.518Z,35.90
2023-02-08T22:54:54.671Z,35.20
2023-02-08T22:57:22.379Z,34.50
2023-02-08T22:59:50.155Z,34.80
2023-02-08T23:02:17.941Z,35.60
2023-02-08T23:04:45.635Z,36.90
2023-02-08T23:07:13.372Z,38.10
2023-02-08T23:09:41.056Z,38.70
2023-02-08T23:12:08.755Z,38.00
2023-02-08T23:14:36.789Z,39.80
2023-02-08T23:17:04.618Z,38.40
2023-02-08T23:19:32.317Z,39.10
2023-02-08T23:22:00.106Z,37.80
2023-02-08T23:24:28.064Z,37.50
2023-02-08T23:26:55.770Z,39.30
2023-02-08T23:29:23.577Z,40.40
2023-02-08T23:31:51.454Z,41.80
2023-02-08T23:34:19.335Z,44.10
2023-02-08T23:36:47.019Z,42.70
2023-02-08T23:39:14.684Z,43.20
2023-02-08T23:41:42.457Z,44.30
2023-02-08T23:44:10.208Z,44.30
2023-02-08T23:46:37.950Z,44.40
2023-02-08T23:49:05.646Z,44.00
2023-02-08T23:51:33.371Z,42.30
2023-02-08T23:54:01.136Z,44.60
2023-02-08T23:56:31.967Z,42.60
2023-02-08T23:59:00.371Z,41.30
